createdAt,value
2023-05-11T00:01:11.079Z,55.70
2023-05-11T00:03:38.469Z,55.80
2023-05-11T00:06:05.477Z,55.70
2023-05-11T00:08:32.320Z,55.80
2023-05-11T00:11:00.905Z,55.90
2023-05-11T00:13:29.145Z,55.80
2023-05-11T00:15:56.078Z,55.90
2023-05-11T00:18:23.161Z,56.00
2023-05-11T00:20:50.006Z,56.00
2023-05-11T00:23:17.005Z,56.10
2023-05-11T00:25:43.906Z,56.20
2023-05-11T00:28:10.726Z,56.30
2023-05-11T00:30:37.504Z,56.90
2023-05-11T00:33:04.643Z,57.00
2023-05-11T00:35:32.767Z,57.10
2023-05-11T00:37:59.742Z,57.40
2023-05-11T00:40:26.599Z,57.90
2023-05-11T00:42:53.579Z,58.20
2023-05-11T00:45:20.814Z,58.30
2023-05-11T00:47:47.668Z,58.60
2023-05-11T00:50:15.453Z,58.60
2023-05-11T00:52:43.348Z,58.70
2023-05-11T00:55:11.273Z,58.70
2023-05-11T00:57:39.128Z,58.50
2023-05-11T01:00:07.277Z,59.10
2023-05-11T01:02:34.649Z,58.90
2023-05-11T01:05:01.940Z,58.80
2023-05-11T01:07:56.631Z,58.80
2023-05-11T01:10:38.919Z,58.60
2023-05-11T01:13:13.986Z,58.60
2023-05-11T01:15:51.720Z,58.30
2023-05-11T01:18:54.856Z,58.30
2023-05-11T01:21:21.994Z,58.10
2023-05-11T01:24:16.392Z,58.10
2023-05-11T01:27:01.942Z,57.90
2023-05-11T01:29:50.110Z,57.90
2023-05-11T01:32:23.985Z,57.70
2023-05-11T01:35:00.976Z,57.70
2023-05-11T01:37:31.563Z,57.50
2023-05-11T01:40:02.832Z,57.50
2023-05-11T01:42:38.889Z,57.60
2023-05-11T01:45:07.796Z,57.30
2023-05-11T01:47:37.319Z,57.40
2023-05-11T01:50:06.420Z,57.40
2023-05-11T01:52:34.344Z,57.40
2023-05-11T01:55:04.362Z,57.50
2023-05-11T01:57:31.727Z,57.40
2023-05-11T02:00:00.633Z,57.60
2023-05-11T02:02:29.259Z,58.30
2023-05-11T02:04:58.024Z,57.80
2023-05-11T02:07:27.081Z,57.90
2023-05-11T02:09:55.069Z,57.90
2023-05-11T02:12:23.615Z,58.00
2023-05-11T02:14:51.683Z,58.00
2023-05-11T02:17:21.192Z,58.00
2023-05-11T02:19:49.173Z,57.90
2023-05-11T02:22:16.699Z,58.10
2023-05-11T02:24:43.965Z,58.40
2023-05-11T02:27:11.658Z,57.70
2023-05-11T02:29:38.444Z,57.60
2023-05-11T02:32:12.455Z,57.60
2023-05-11T02:34:46.433Z,57.50
2023-05-11T02:37:23.522Z,57.60
2023-05-11T02:39:57.961Z,57.70
2023-05-11T02:42:27.726Z,57.90
2023-05-11T02:45:05.021Z,58.10
2023-05-11T02:47:34.730Z,58.20
2023-05-11T02:50:04.265Z,58.30
2023-05-11T02:52:32.804Z,59.00
2023-05-11T02:55:02.464Z,59.10
2023-05-11T02:57:29.459Z,59.20
2023-05-11T02:59:56.597Z,59.20
2023-05-11T03:02:23.698Z,59.30
2023-05-11T03:04:50.690Z,59.80
2023-05-11T03:07:17.483Z,60.20
2023-05-11T03:09:44.479Z,60.60
2023-05-11T03:12:11.655Z,61.20
2023-05-11T03:14:39.023Z,61.70
2023-05-11T03:17:06.761Z,62.60
2023-05-11T03:19:33.758Z,62.30
2023-05-11T03:22:01.010Z,62.70
2023-05-11T03:24:28.119Z,62.60
2023-05-11T03:26:56.218Z,63.00
2023-05-11T03:29:25.242Z,63.30
2023-05-11T03:31:52.418Z,63.70
2023-05-11T03:34:19.337Z,62.60
2023-05-11T03:36:50.820Z,62.60
2023-05-11T03:39:18.265Z,62.60
2023-05-11T03:41:49.496Z,62.30
2023-05-11T03:44:20.746Z,62.00
2023-05-11T03:46:48.366Z,62.60
2023-05-11T03:49:16.796Z,62.40
2023-05-11T03:51:44.677Z,62.30
2023-05-11T03:54:11.796Z,62.30
2023-05-11T03:56:39.645Z,62.30
2023-05-11T03:59:07.597Z,63.20
2023-05-11T04:01:35.041Z,62.60
2023-05-11T04:04:01.993Z,62.70
2023-05-11T04:06:28.840Z,62.80
2023-05-11T04:08:55.650Z,62.80
2023-05-11T04:11:22.946Z,62.80
2023-05-11T04:13:49.939Z,62.50
2023-05-11T04:16:16.734Z,62.40
2023-05-11T04:18:43.633Z,62.60
2023-05-11T04:21:10.707Z,62.70
2023-05-11T04:23:38.303Z,62.80
2023-05-11T04:26:05.128Z,62.70
2023-05-11T04:28:31.900Z,62.80
2023-05-11T04:30:58.834Z,63.00
2023-05-11T04:33:25.761Z,63.00
2023-05-11T04:35:54.154Z,63.20
2023-05-11T04:38:22.444Z,63.10
2023-05-11T04:40:50.722Z,63.20
2023-05-11T04:43:18.540Z,63.30
2023-05-11T04:45:51.531Z,63.00
2023-05-11T04:48:20.692Z,63.20
2023-05-11T04:50:47.905Z,62.90
2023-05-11T04:53:14.759Z,62.70
2023-05-11T04:55:41.554Z,62.40
2023-05-11T04:58:12.062Z,61.90
2023-05-11T05:00:38.854Z,62.00
2023-05-11T05:03:05.717Z,61.90
2023-05-11T05:05:32.843Z,61.00
2023-05-11T05:08:00.251Z,61.10
2023-05-11T05:10:27.510Z,60.70
2023-05-11T05:12:54.395Z,60.80
2023-05-11T05:15:21.411Z,61.10
2023-05-11T05:17:48.334Z,60.80
2023-05-11T05:20:15.106Z,61.00
2023-05-11T05:22:41.962Z,61.10
2023-05-11T05:25:09.459Z,61.20
2023-05-11T05:27:36.245Z,61.00
2023-05-11T05:30:03.102Z,60.90
2023-05-11T05:32:29.860Z,60.80
2023-05-11T05:34:56.646Z,60.80
2023-05-11T05:37:23.421Z,60.80
2023-05-11T05:39:50.335Z,59.80
2023-05-11T05:42:17.192Z,59.50
2023-05-11T05:44:43.943Z,59.80
2023-05-11T05:47:10.772Z,59.60
2023-05-11T05:49:37.516Z,59.20
2023-05-11T05:52:04.564Z,58.90
2023-05-11T05:54:31.416Z,59.30
2023-05-11T05:56:58.241Z,59.60
2023-05-11T05:59:25.060Z,59.50
2023-05-11T06:01:51.930Z,59.70
2023-05-11T06:04:19.383Z,59.90
2023-05-11T06:06:46.565Z,59.00
2023-05-11T06:09:13.579Z,58.90
2023-05-11T06:11:41.171Z,59.10
2023-05-11T06:14:08.093Z,59.30
2023-05-11T06:16:35.013Z,59.40
2023-05-11T06:19:02.114Z,59.60
2023-05-11T06:21:28.882Z,59.20
2023-05-11T06:23:55.647Z,59.20
2023-05-11T06:26:25.297Z,59.20
2023-05-11T06:28:52.808Z,58.20
2023-05-11T06:31:19.810Z,57.80
2023-05-11T06:33:46.687Z,57.70
2023-05-11T06:36:13.490Z,58.20
2023-05-11T06:38:40.348Z,58.50
2023-05-11T06:41:07.673Z,58.30
2023-05-11T06:43:34.442Z,58.30
2023-05-11T06:46:01.282Z,58.00
2023-05-11T06:48:29.936Z,58.40
2023-05-11T06:50:57.294Z,58.20
2023-05-11T06:53:24.284Z,57.00
2023-05-11T06:55:51.057Z,56.80
2023-05-11T06:58:20.757Z,56.50
2023-05-11T07:00:48.480Z,56.70
2023-05-11T07:03:15.949Z,55.90
2023-05-11T07:05:43.096Z,56.60
2023-05-11T07:08:09.960Z,56.30
2023-05-11T07:10:36.856Z,55.10
2023-05-11T07:13:03.660Z,54.40
2023-05-11T07:15:30.670Z,53.80
2023-05-11T07:17:57.475Z,52.00
2023-05-11T07:20:24.251Z,51.70
2023-05-11T07:22:51.074Z,52.10
2023-05-11T07:25:17.850Z,52.20
2023-05-11T07:27:44.628Z,51.50
2023-05-11T07:30:12.045Z,51.80
2023-05-11T07:32:38.908Z,51.70
2023-05-11T07:35:06.078Z,50.70
2023-05-11T07:37:32.900Z,50.10
2023-05-11T07:39:59.805Z,50.90
2023-05-11T07:42:26.713Z,51.60
2023-05-11T07:44:53.801Z,51.90
2023-05-11T07:47:21.074Z,51.60
2023-05-11T07:49:48.670Z,51.50
2023-05-11T07:52:15.489Z,50.70
2023-05-11T07:54:42.457Z,50.60
2023-05-11T07:57:11.323Z,50.90
2023-05-11T07:59:38.428Z,52.20
2023-05-11T08:02:07.986Z,51.70
2023-05-11T08:04:34.943Z,50.60
2023-05-11T08:07:02.405Z,47.70
2023-05-11T08:09:29.782Z,47.70
2023-05-11T08:11:56.691Z,47.10
2023-05-11T08:14:26.200Z,47.00
2023-05-11T08:16:53.374Z,47.00
2023-05-11T08:19:20.168Z,47.10
2023-05-11T08:21:47.059Z,47.00
2023-05-11T08:24:13.864Z,47.00
2023-05-11T08:26:40.742Z,47.40
2023-05-11T08:29:07.923Z,47.00
2023-05-11T08:31:34.773Z,46.60
2023-05-11T08:34:02.064Z,47.40
2023-05-11T08:36:28.930Z,47.10
2023-05-11T08:38:58.950Z,47.40
2023-05-11T08:41:26.263Z,48.30
2023-05-11T08:43:54.641Z,47.90
2023-05-11T08:46:23.761Z,48.00
2023-05-11T08:48:50.858Z,47.20
2023-05-11T08:51:17.728Z,47.00
2023-05-11T08:53:44.794Z,47.60
2023-05-11T08:56:12.624Z,47.80
2023-05-11T08:58:40.760Z,48.30
2023-05-11T09:01:08.763Z,49.20
2023-05-11T09:03:37.225Z,48.50
2023-05-11T09:06:07.348Z,48.40
2023-05-11T09:08:38.437Z,48.40
2023-05-11T09:11:06.435Z,48.70
2023-05-11T09:13:33.540Z,48.30
2023-05-11T09:16:00.431Z,48.30
2023-05-11T09:18:27.808Z,47.90
2023-05-11T09:20:54.821Z,47.90
2023-05-11T09:23:26.816Z,47.80
2023-05-11T09:25:53.908Z,48.40
2023-05-11T09:28:27.352Z,48.80
2023-05-11T09:30:54.848Z,48.30
2023-05-11T09:33:24.015Z,48.30
2023-05-11T09:35:51.009Z,46.10
2023-05-11T09:38:19.992Z,45.60
2023-05-11T09:40:54.952Z,46.60
2023-05-11T09:43:30.544Z,46.80
2023-05-11T09:46:04.730Z,46.90
2023-05-11T09:48:32.860Z,46.00
2023-05-11T09:51:08.919Z,46.10
2023-05-11T09:53:45.841Z,46.60
2023-05-11T09:56:14.134Z,47.10
2023-05-11T09:58:51.663Z,46.50
2023-05-11T10:01:29.481Z,47.20
2023-05-11T10:04:06.121Z,46.50
2023-05-11T10:06:44.284Z,46.00
2023-05-11T10:09:11.598Z,46.30
2023-05-11T10:11:41.262Z,47.10
2023-05-11T10:14:09.866Z,47.10
2023-05-11T10:16:36.858Z,47.50
2023-05-11T10:19:03.846Z,47.30
2023-05-11T10:21:31.813Z,48.00
2023-05-11T10:23:59.664Z,48.40
2023-05-11T10:26:27.317Z,47.50
2023-05-11T10:28:54.109Z,47.30
2023-05-11T10:31:24.321Z,47.40
2023-05-11T10:33:52.083Z,46.90
2023-05-11T10:36:19.654Z,46.90
2023-05-11T10:38:46.810Z,47.70
2023-05-11T10:42:01.529Z,46.40
2023-05-11T10:44:47.547Z,47.30
2023-05-11T10:47:46.542Z,46.80
2023-05-11T10:50:32.034Z,47.40
2023-05-11T10:53:04.664Z,47.50
2023-05-11T10:56:01.133Z,47.20
2023-05-11T10:58:54.704Z,48.10
2023-05-11T11:01:40.371Z,48.50
2023-05-11T11:04:09.249Z,47.60
2023-05-11T11:06:38.411Z,48.00
2023-05-11T11:09:08.752Z,48.00
2023-05-11T11:11:42.502Z,48.20
2023-05-11T11:14:10.172Z,47.40
2023-05-11T11:16:39.006Z,46.40
2023-05-11T11:19:30.906Z,46.30
2023-05-11T11:22:02.006Z,46.20
2023-05-11T11:24:38.493Z,47.50
2023-05-11T11:27:07.229Z,46.60
2023-05-11T11:29:38.902Z,46.30
2023-05-11T11:32:23.875Z,47.30
2023-05-11T11:34:51.538Z,47.90
2023-05-11T11:37:21.347Z,47.50
2023-05-11T11:39:50.375Z,47.20
2023-05-11T11:42:34.913Z,47.40
2023-05-11T11:45:27.042Z,46.10
2023-05-11T11:48:14.410Z,46.80
2023-05-11T11:50:42.927Z,46.30
2023-05-11T11:53:33.545Z,47.00
2023-05-11T11:56:00.480Z,46.90
2023-05-11T11:58:43.251Z,47.00
2023-05-11T12:01:24.424Z,46.90
2023-05-11T12:04:19.080Z,48.00
2023-05-11T12:06:56.061Z,47.90
2023-05-11T12:09:23.565Z,47.60
2023-05-11T12:11:51.192Z,47.20
2023-05-11T12:14:19.211Z,47.70
2023-05-11T12:17:01.278Z,47.90
2023-05-11T12:19:28.420Z,47.00
2023-05-11T12:21:55.337Z,47.00
2023-05-11T12:24:22.243Z,47.70
2023-05-11T12:27:03.601Z,48.30
2023-05-11T12:29:30.471Z,47.40
2023-05-11T12:31:57.647Z,47.80
2023-05-11T12:34:24.494Z,49.00
2023-05-11T12:36:53.295Z,48.60
2023-05-11T12:39:27.520Z,48.50
2023-05-11T12:41:56.279Z,47.90
2023-05-11T12:44:25.154Z,48.70
2023-05-11T12:46:52.846Z,48.20
2023-05-11T12:52:02.261Z,48.20
2023-05-11T12:55:00.198Z,48.70
2023-05-11T12:57:29.401Z,47.70
2023-05-11T13:00:15.625Z,48.00
2023-05-11T13:02:54.340Z,48.20
2023-05-11T13:05:26.780Z,47.00
2023-05-11T13:08:04.798Z,46.80
2023-05-11T13:10:32.180Z,46.70
2023-05-11T13:12:59.460Z,46.40
2023-05-11T13:15:28.581Z,46.30
2023-05-11T13:17:58.430Z,46.70
2023-05-11T13:20:33.734Z,46.70
2023-05-11T13:23:07.502Z,47.10
2023-05-11T13:25:50.357Z,47.30
2023-05-11T13:28:19.632Z,47.40
2023-05-11T13:30:47.134Z,48.30
2023-05-11T13:33:14.132Z,47.70
2023-05-11T13:35:41.844Z,47.80
2023-05-11T13:38:09.558Z,47.50
2023-05-11T13:40:36.902Z,47.40
2023-05-11T13:43:04.154Z,47.50
2023-05-11T13:45:31.128Z,47.50
2023-05-11T13:47:58.006Z,48.30
2023-05-11T13:50:26.230Z,48.20
2023-05-11T13:52:53.869Z,48.30
2023-05-11T13:55:21.614Z,48.50
2023-05-11T13:57:48.762Z,48.20
2023-05-11T14:00:16.212Z,47.00
2023-05-11T14:02:44.298Z,47.10
2023-05-11T14:05:11.400Z,46.70
2023-05-11T14:07:47.000Z,46.70
2023-05-11T14:10:16.943Z,47.00
2023-05-11T14:12:43.836Z,47.40
2023-05-11T14:15:11.644Z,47.20
2023-05-11T14:17:38.581Z,47.30
2023-05-11T14:20:06.658Z,47.40
2023-05-11T14:22:33.508Z,47.60
2023-05-11T14:25:01.906Z,46.80
2023-05-11T14:27:28.828Z,47.10
2023-05-11T14:29:55.761Z,46.80
2023-05-11T14:32:22.690Z,46.20
2023-05-11T14:34:49.622Z,46.40
2023-05-11T14:37:16.827Z,46.70
2023-05-11T14:39:44.063Z,47.30
2023-05-11T14:42:10.948Z,47.30
2023-05-11T14:44:38.032Z,46.50
2023-05-11T14:47:05.537Z,46.40
2023-05-11T14:49:32.531Z,46.30
2023-05-11T14:51:59.781Z,47.10
2023-05-11T14:54:27.317Z,46.90
2023-05-11T14:56:56.169Z,46.50
2023-05-11T14:59:24.454Z,46.20
2023-05-11T15:01:51.519Z,46.50
2023-05-11T15:04:20.281Z,46.60
2023-05-11T15:06:47.147Z,46.20
2023-05-11T15:09:14.217Z,46.00
2023-05-11T15:11:41.190Z,45.50
2023-05-11T15:14:08.024Z,46.00
2023-05-11T15:16:34.842Z,46.60
2023-05-11T15:19:01.690Z,46.40
2023-05-11T15:21:28.522Z,46.90
2023-05-11T15:23:55.294Z,46.90
2023-05-11T15:26:22.881Z,46.40
2023-05-11T15:28:49.970Z,46.70
2023-05-11T15:31:17.349Z,46.60
2023-05-11T15:33:44.906Z,46.30
2023-05-11T15:36:13.901Z,46.00
2023-05-11T15:38:42.090Z,45.80
2023-05-11T15:41:09.101Z,46.00
2023-05-11T15:43:36.097Z,45.90
2023-05-11T15:46:03.867Z,46.50
2023-05-11T15:48:31.183Z,46.30
2023-05-11T15:50:59.851Z,46.10
2023-05-11T15:53:27.081Z,45.60
2023-05-11T15:55:55.622Z,45.80
2023-05-11T15:58:23.199Z,46.20
2023-05-11T16:00:50.173Z,46.50
2023-05-11T16:03:17.612Z,46.70
2023-05-11T16:05:45.511Z,46.00
2023-05-11T16:08:13.234Z,46.60
2023-05-11T16:10:40.083Z,46.80
2023-05-11T16:13:07.256Z,46.80
2023-05-11T16:15:34.309Z,46.70
2023-05-11T16:18:04.008Z,46.60
2023-05-11T16:20:31.776Z,46.50
2023-05-11T16:22:58.619Z,46.60
2023-05-11T16:25:25.423Z,46.20
2023-05-11T16:27:52.188Z,46.20
2023-05-11T16:30:25.139Z,46.30
2023-05-11T16:32:53.174Z,46.10
2023-05-11T16:35:20.462Z,46.20
2023-05-11T16:37:48.009Z,46.50
2023-05-11T16:40:15.318Z,46.80
2023-05-11T16:42:42.444Z,46.90
2023-05-11T16:45:10.217Z,46.70
2023-05-11T16:47:36.996Z,46.70
2023-05-11T16:50:03.949Z,47.00
2023-05-11T16:52:30.842Z,46.30
2023-05-11T16:54:59.116Z,46.60
2023-05-11T16:57:26.761Z,46.50
2023-05-11T16:59:53.577Z,46.40
2023-05-11T17:02:21.245Z,46.30
2023-05-11T17:04:48.938Z,46.10
2023-05-11T17:07:16.751Z,46.70
2023-05-11T17:09:43.679Z,46.00
2023-05-11T17:12:10.800Z,46.00
2023-05-11T17:14:37.702Z,46.20
2023-05-11T17:17:06.821Z,46.40
2023-05-11T17:19:34.557Z,46.40
2023-05-11T17:22:01.364Z,46.20
2023-05-11T17:24:28.628Z,46.20
2023-05-11T17:26:55.584Z,46.10
2023-05-11T17:29:22.603Z,46.20
2023-05-11T17:31:51.660Z,46.20
2023-05-11T17:34:19.493Z,46.20
2023-05-11T17:36:47.270Z,46.50
2023-05-11T17:39:16.073Z,46.60
2023-05-11T17:41:43.594Z,46.80
2023-05-11T17:44:10.462Z,46.90
2023-05-11T17:46:37.414Z,47.00
2023-05-11T17:49:04.268Z,46.90
2023-05-11T17:51:31.297Z,46.60
2023-05-11T17:53:58.104Z,46.90
2023-05-11T17:56:24.971Z,47.00
2023-05-11T17:58:51.875Z,46.80
2023-05-11T18:01:19.694Z,46.80
2023-05-11T18:03:47.021Z,46.90
2023-05-11T18:06:13.997Z,46.80
2023-05-11T18:08:40.941Z,46.90
2023-05-11T18:11:10.159Z,47.00
2023-05-11T18:13:37.016Z,47.10
2023-05-11T18:16:04.250Z,47.30
2023-05-11T18:18:32.090Z,47.20
2023-05-11T18:21:03.868Z,47.30
2023-05-11T18:23:30.653Z,47.40
2023-05-11T18:25:57.487Z,47.50
2023-05-11T18:28:24.315Z,47.80
2023-05-11T18:30:51.119Z,48.40
2023-05-11T18:33:17.987Z,48.00
2023-05-11T18:35:44.929Z,48.30
2023-05-11T18:38:11.923Z,48.30
2023-05-11T18:40:38.832Z,48.50
2023-05-11T18:43:05.764Z,48.70
2023-05-11T18:45:34.783Z,48.70
2023-05-11T18:48:02.508Z,49.10
2023-05-11T18:50:29.932Z,49.30
2023-05-11T18:52:57.590Z,49.30
2023-05-11T18:55:24.810Z,49.60
2023-05-11T18:57:52.741Z,49.70
2023-05-11T19:00:20.741Z,49.70
2023-05-11T19:02:48.323Z,49.80
2023-05-11T19:05:15.438Z,50.00
2023-05-11T19:07:42.365Z,50.00
2023-05-11T19:10:09.473Z,50.50
2023-05-11T19:12:36.283Z,50.20
2023-05-11T19:15:04.329Z,50.20
2023-05-11T19:17:31.150Z,50.30
2023-05-11T19:19:58.050Z,50.40
2023-05-11T19:22:24.934Z,50.60
2023-05-11T19:24:51.739Z,50.70
2023-05-11T19:27:18.490Z,51.20
2023-05-11T19:29:45.278Z,51.20
2023-05-11T19:32:12.061Z,51.50
2023-05-11T19:34:38.861Z,51.50
2023-05-11T19:37:07.045Z,51.70
2023-05-11T19:39:33.784Z,51.70
2023-05-11T19:42:00.719Z,51.90
2023-05-11T19:44:29.705Z,52.20
2023-05-11T19:46:56.472Z,52.30
2023-05-11T19:49:23.224Z,52.50
2023-05-11T19:51:50.044Z,52.50
2023-05-11T19:54:17.172Z,52.60
2023-05-11T19:56:43.941Z,53.00
2023-05-11T19:59:10.695Z,53.20
2023-05-11T20:01:37.547Z,53.30
2023-05-11T20:04:04.597Z,53.30
2023-05-11T20:06:31.823Z,53.60
2023-05-11T20:08:58.768Z,53.70
2023-05-11T20:11:26.294Z,53.70
2023-05-11T20:13:53.866Z,53.80
2023-05-11T20:16:20.790Z,53.90
2023-05-11T20:18:47.762Z,53.90
2023-05-11T20:21:14.746Z,54.10
2023-05-11T20:23:41.471Z,54.20
2023-05-11T20:26:08.290Z,54.30
2023-05-11T20:28:35.112Z,54.50
2023-05-11T20:31:02.020Z,54.60
2023-05-11T20:35:59.271Z,54.70
2023-05-11T20:38:26.054Z,54.70
2023-05-11T20:40:59.020Z,54.90
2023-05-11T20:43:26.121Z,54.90
2023-05-11T20:45:53.932Z,55.00
2023-05-11T20:48:28.933Z,55.10
2023-05-11T20:51:03.030Z,55.30
2023-05-11T20:53:31.067Z,55.60
2023-05-11T20:55:57.909Z,55.70
2023-05-11T20:58:24.706Z,56.00
2023-05-11T21:00:51.620Z,56.00
2023-05-11T21:03:18.657Z,56.20
2023-05-11T21:05:45.642Z,56.40
2023-05-11T21:08:12.890Z,56.40
2023-05-11T21:10:39.613Z,56.60
2023-05-11T21:13:06.437Z,56.60
2023-05-11T21:15:33.193Z,56.60
2023-05-11T21:18:02.001Z,56.70
2023-05-11T21:20:28.905Z,57.00
2023-05-11T21:22:55.811Z,56.90
2023-05-11T21:25:22.616Z,57.00
2023-05-11T21:27:49.368Z,56.90
2023-05-11T21:30:16.366Z,56.90
2023-05-11T21:32:43.218Z,56.90
2023-05-11T21:35:10.337Z,57.00
2023-05-11T21:37:37.272Z,57.00
2023-05-11T21:40:04.502Z,57.60
2023-05-11T21:42:34.609Z,57.10
2023-05-11T21:45:04.978Z,57.10
2023-05-11T21:47:31.814Z,57.00
2023-05-11T21:49:59.093Z,57.10
2023-05-11T21:52:26.198Z,57.10
2023-05-11T21:54:53.034Z,57.20
2023-05-11T21:57:20.801Z,57.00
2023-05-11T21:59:48.879Z,57.00
2023-05-11T22:02:17.256Z,57.20
2023-05-11T22:04:45.447Z,57.10
2023-05-11T22:07:12.788Z,57.10
2023-05-11T22:09:39.865Z,57.10
2023-05-11T22:12:07.177Z,57.20
2023-05-11T22:14:33.941Z,57.10
2023-05-11T22:17:00.784Z,57.70
2023-05-11T22:19:27.634Z,57.20
2023-05-11T22:21:54.353Z,57.40
2023-05-11T22:24:21.763Z,57.30
2023-05-11T22:26:48.530Z,58.00
2023-05-11T22:29:15.754Z,57.30
2023-05-11T22:31:44.673Z,57.30
2023-05-11T22:34:12.985Z,57.40
2023-05-11T22:36:39.727Z,57.30
2023-05-11T22:39:06.696Z,57.40
2023-05-11T22:41:33.566Z,57.50
2023-05-11T22:44:00.414Z,57.70
2023-05-11T22:46:27.237Z,57.70
2023-05-11T22:48:54.177Z,57.70
2023-05-11T22:51:20.948Z,57.90
2023-05-11T22:53:48.464Z,58.30
2023-05-11T22:56:15.255Z,58.40
2023-05-11T22:58:42.279Z,58.50
2023-05-11T23:01:09.126Z,58.40
2023-05-11T23:03:36.050Z,58.80
2023-05-11T23:06:02.914Z,58.90
2023-05-11T23:08:29.676Z,58.90
2023-05-11T23:10:56.649Z,58.90
2023-05-11T23:13:26.795Z,58.90
2023-05-11T23:15:53.551Z,59.10
2023-05-11T23:18:20.512Z,58.90
2023-05-11T23:20:47.436Z,59.00
2023-05-11T23:23:14.195Z,59.00
2023-05-11T23:25:41.208Z,59.30
2023-05-11T23:28:11.581Z,59.70
2023-05-11T23:30:38.498Z,59.30
2023-05-11T23:33:05.469Z,59.40
2023-05-11T23:35:39.245Z,59.40
2023-05-11T23:38:09.558Z,59.40
2023-05-11T23:40:37.018Z,59.40
2023-05-11T23:43:07.037Z,59.30
2023-05-11T23:45:34.501Z,59.50
2023-05-11T23:48:12.531Z,59.70
2023-05-11T23:50:44.668Z,59.60
2023-05-11T23:53:12.032Z,59.50
2023-05-11T23:55:56.981Z,59.50
2023-05-11T23:58:29.352Z,59.50
